Time;durP1;ratioP1;P1;durP2;ratioP2;P2;SDS_P1;SDS_P2;PMS_P1;PMS_P2;Temp;Humidity;BMP_temperature;BMP_pressure;BME280_temperature;BME280_humidity;BME280_pressure;Samples;Min_cycle;Max_cycle;Signal;HPM_P1;HPM_P2
2023/07/16 00:01:01;;;;;;;2.40;1.45;;;19.10;99.90;;;;;;5118276;27;20035;-58
2023/07/16 00:03:27;;;;;;;2.17;1.40;;;19.00;99.90;;;;;;5117985;27;20546;-58
2023/07/16 00:05:52;;;;;;;;;;;19.00;99.90;;;;;;5118112;27;20044;-54
2023/07/16 00:08:18;;;;;;;2.78;1.52;;;19.00;99.90;;;;;;5118606;28;19920;-59
2023/07/16 00:10:44;;;;;;;2.85;1.50;;;19.00;99.90;;;;;;5099434;28;20039;-59
2023/07/16 00:13:09;;;;;;;;;;;19.00;99.90;;;;;;5117482;27;20043;-56
2023/07/16 00:15:35;;;;;;;3.20;1.55;;;19.00;99.90;;;;;;5117592;27;19943;-56
2023/07/16 00:18:00;;;;;;;2.88;1.42;;;19.00;99.90;;;;;;5109536;28;20044;-58
2023/07/16 00:20:26;;;;;;;;;;;19.00;99.90;;;;;;5098960;27;20035;-60
2023/07/16 00:22:52;;;;;;;3.55;1.60;;;19.00;99.90;;;;;;5103335;28;19920;-60
2023/07/16 00:25:18;;;;;;;3.97;1.40;;;18.90;99.90;;;;;;5105197;28;20487;-62
2023/07/16 00:27:43;;;;;;;;;;;18.90;99.90;;;;;;5103896;28;20046;-56
2023/07/16 00:30:09;;;;;;;3.78;1.80;;;18.90;99.90;;;;;;5105078;28;19959;-60
2023/07/16 00:32:35;;;;;;;2.90;1.35;;;18.90;99.90;;;;;;5097621;28;20508;-58
2023/07/16 00:35:01;;;;;;;;;;;18.90;99.90;;;;;;5066581;28;20035;-58
2023/07/16 00:37:27;;;;;;;5.30;1.60;;;18.90;99.90;;;;;;5101697;28;20319;-57
2023/07/16 00:39:53;;;;;;;2.00;1.30;;;18.90;99.90;;;;;;5104198;28;20480;-58
2023/07/16 00:42:18;;;;;;;1.52;1.38;;;18.80;99.90;;;;;;5086187;28;20043;-58
2023/07/16 00:44:44;;;;;;;3.83;1.10;;;18.80;99.90;;;;;;5103953;28;20036;-55
2023/07/16 00:47:11;;;;;;;2.22;1.40;;;18.80;99.90;;;;;;5095042;28;20145;-60
2023/07/16 00:49:38;;;;;;;3.30;1.45;;;18.80;99.90;;;;;;5105832;28;20047;-53
2023/07/16 00:52:07;;;;;;;2.33;1.15;;;18.80;99.90;;;;;;5105017;28;20094;-55
2023/07/16 00:54:33;;;;;;;2.80;1.27;;;18.80;99.90;;;;;;5103438;28;20051;-60
2023/07/16 00:56:59;;;;;;;5.68;1.40;;;18.80;99.90;;;;;;5104776;28;20128;-58
2023/07/16 00:59:25;;;;;;;;;;;18.80;99.90;;;;;;5105025;28;20083;-59
2023/07/16 01:01:50;;;;;;;2.10;1.15;;;18.70;99.90;;;;;;5091943;28;20288;-60
2023/07/16 01:04:16;;;;;;;1.85;1.30;;;18.70;99.90;;;;;;5103959;28;20092;-59
2023/07/16 01:06:46;;;;;;;4.20;1.30;;;18.70;99.90;;;;;;5104105;28;20036;-62
2023/07/16 01:09:20;;;;;;;2.67;1.33;;;18.70;99.90;;;;;;5093744;28;20043;-58
2023/07/16 01:11:47;;;;;;;5.78;1.70;;;18.70;99.90;;;;;;5104554;28;20077;-57
2023/07/16 01:14:14;;;;;;;3.20;1.25;;;18.70;99.90;;;;;;5104873;28;20028;-61
2023/07/16 01:16:41;;;;;;;2.25;1.50;;;18.60;99.90;;;;;;5101784;27;20039;-60
2023/07/16 01:19:07;;;;;;;4.55;1.58;;;18.60;99.90;;;;;;5105248;28;20437;-61
2023/07/16 01:21:35;;;;;;;;;;;18.60;99.90;;;;;;5104469;28;20035;-60
2023/07/16 01:24:37;;;;;;;2.22;1.23;;;18.50;99.90;;;;;;5103465;28;19920;-60
2023/07/16 01:27:17;;;;;;;1.98;1.15;;;18.50;99.90;;;;;;5097330;28;20067;-61
2023/07/16 01:29:47;;;;;;;2.38;0.98;;;18.50;99.90;;;;;;5092086;28;20483;-56
2023/07/16 01:32:14;;;;;;;2.90;1.58;;;18.40;99.90;;;;;;5068359;28;20091;-54
2023/07/16 01:34:41;;;;;;;3.67;1.40;;;18.40;99.90;;;;;;5095778;28;20117;-58
2023/07/16 01:37:07;;;;;;;3.05;1.25;;;18.40;99.90;;;;;;5080190;28;20074;-61
2023/07/16 01:39:33;;;;;;;4.60;1.80;;;18.30;99.90;;;;;;5103745;28;20170;-58
2023/07/16 01:41:58;;;;;;;;;;;18.40;99.90;;;;;;5093692;28;20040;-55
2023/07/16 01:44:24;;;;;;;2.58;1.40;;;18.30;99.90;;;;;;5092810;28;19991;-59
2023/07/16 01:47:08;;;;;;;5.00;1.83;;;18.40;99.90;;;;;;5099506;28;20490;-59
2023/07/16 01:49:34;;;;;;;8.05;1.40;;;18.40;99.90;;;;;;5098096;28;20071;-61
2023/07/16 01:52:01;;;;;;;;;;;18.40;99.90;;;;;;5079774;28;20070;-58
2023/07/16 01:54:27;;;;;;;3.58;1.63;;;18.30;99.90;;;;;;5096474;28;20360;-61
2023/07/16 01:56:52;;;;;;;3.25;1.50;;;18.30;99.90;;;;;;5102798;28;20539;-59
2023/07/16 01:59:18;;;;;;;2.90;1.27;;;18.40;99.90;;;;;;5095590;28;20050;-60
2023/07/16 02:01:43;;;;;;;3.58;1.55;;;18.40;99.90;;;;;;5113721;27;20039;-61
2023/07/16 02:04:09;;;;;;;2.38;1.20;;;18.30;99.90;;;;;;5122606;27;20039;-57
2023/07/16 02:06:35;;;;;;;5.28;1.60;;;18.40;99.90;;;;;;5116722;27;20083;-53
2023/07/16 02:09:00;;;;;;;;;;;18.40;99.90;;;;;;5123853;27;20115;-58
2023/07/16 02:11:26;;;;;;;5.63;1.58;;;18.40;99.90;;;;;;5121539;27;19923;-57
2023/07/16 02:13:52;;;;;;;3.63;1.48;;;18.30;99.90;;;;;;5093725;28;20035;-58
2023/07/16 02:16:18;;;;;;;5.00;1.60;;;18.30;99.90;;;;;;5092655;27;20039;-59
2023/07/16 02:18:43;;;;;;;;;;;18.20;99.90;;;;;;5117664;27;20047;-60
2023/07/16 02:21:09;;;;;;;5.63;1.65;;;18.20;99.90;;;;;;5104596;28;20607;-57
2023/07/16 02:23:35;;;;;;;3.72;1.55;;;18.10;99.90;;;;;;5117128;27;20043;-59
2023/07/16 02:26:00;;;;;;;;;;;18.10;99.90;;;;;;5121714;27;20067;-56
2023/07/16 02:28:26;;;;;;;6.10;1.77;;;18.10;99.90;;;;;;5115162;27;20090;-59
2023/07/16 02:30:52;;;;;;;3.38;1.40;;;18.00;99.90;;;;;;5117217;27;20039;-58
2023/07/16 02:33:17;;;;;;;4.93;1.60;;;18.00;99.90;;;;;;5100767;28;20038;-53
2023/07/16 02:35:48;;;;;;;5.93;1.67;;;17.90;99.90;;;;;;5101315;28;20629;-58
2023/07/16 02:38:14;;;;;;;6.15;1.30;;;17.90;99.90;;;;;;5096991;28;20114;-60
2023/07/16 02:40:43;;;;;;;;;;;17.90;99.90;;;;;;5103497;28;20168;-62
2023/07/16 02:43:09;;;;;;;4.97;1.45;;;17.80;99.90;;;;;;5102045;28;20028;-58
2023/07/16 02:45:35;;;;;;;;;;;17.70;99.90;;;;;;5103796;28;20055;-57
2023/07/16 02:48:00;;;;;;;5.68;1.38;;;17.70;99.90;;;;;;5102071;28;19923;-57
2023/07/16 02:50:26;;;;;;;8.25;1.92;;;17.70;99.90;;;;;;5090727;28;20181;-56
2023/07/16 02:52:51;;;;;;;;;;;17.70;99.90;;;;;;5103299;28;20039;-50
2023/07/16 02:55:17;;;;;;;2.60;1.20;;;17.60;99.90;;;;;;5104171;28;19915;-55
2023/07/16 02:57:42;;;;;;;;;;;17.60;99.90;;;;;;5103170;28;20392;-57
2023/07/16 03:00:09;;;;;;;3.88;1.50;;;17.60;99.90;;;;;;5102221;28;19999;-58
2023/07/16 03:02:34;;;;;;;2.75;1.52;;;17.60;99.90;;;;;;5101145;28;20076;-52
2023/07/16 03:05:00;;;;;;;;;;;17.50;99.90;;;;;;5103363;28;20031;-59
2023/07/16 03:07:25;;;;;;;5.07;1.85;;;17.40;99.90;;;;;;5103028;28;19949;-55
2023/07/16 03:09:51;;;;;;;;;;;17.40;99.90;;;;;;5102933;28;20120;-55
2023/07/16 03:12:16;;;;;;;4.03;1.48;;;17.40;99.90;;;;;;5102077;28;19931;-60
2023/07/16 03:14:43;;;;;;;5.00;1.48;;;17.30;99.90;;;;;;5102762;28;20391;-55
2023/07/16 03:17:09;;;;;;;4.68;1.20;;;17.30;99.90;;;;;;5101908;28;20035;-58
2023/07/16 03:19:35;;;;;;;;;;;17.30;99.90;;;;;;5102524;28;20043;-58
2023/07/16 03:22:00;;;;;;;10.05;1.45;;;17.20;99.90;;;;;;5103049;28;19990;-58
2023/07/16 03:24:27;;;;;;;;;;;17.20;99.90;;;;;;5103333;28;20180;-58
2023/07/16 03:26:52;;;;;;;5.07;1.60;;;17.10;99.90;;;;;;5095354;28;20571;-61
2023/07/16 03:29:18;;;;;;;;;;;17.00;99.90;;;;;;5103503;28;20490;-60
2023/07/16 03:31:44;;;;;;;4.32;1.80;;;17.10;99.90;;;;;;5101372;28;19959;-58
2023/07/16 03:34:09;;;;;;;;;;;17.00;99.90;;;;;;5101969;28;20435;-61
2023/07/16 03:36:35;;;;;;;7.40;2.15;;;17.00;99.90;;;;;;5101292;28;20048;-58
2023/07/16 03:39:01;;;;;;;3.00;1.50;;;17.00;99.90;;;;;;5098136;28;20102;-60
2023/07/16 03:41:26;;;;;;;6.63;1.70;;;17.00;99.90;;;;;;5102005;28;20043;-60
2023/07/16 03:43:52;;;;;;;;;;;16.90;99.90;;;;;;5098645;28;20032;-56
2023/07/16 03:46:20;;;;;;;6.97;1.48;;;16.90;99.90;;;;;;5103306;28;19981;-60
2023/07/16 03:48:46;;;;;;;4.82;1.83;;;17.00;99.90;;;;;;5101681;28;20116;-60
2023/07/16 03:51:12;;;;;;;;;;;17.00;99.90;;;;;;5103747;28;20032;-56
2023/07/16 03:53:38;;;;;;;4.88;1.30;;;17.00;99.90;;;;;;5104732;28;19923;-59
2023/07/16 03:56:03;;;;;;;;;;;17.00;99.90;;;;;;5106991;28;20044;-55
2023/07/16 03:58:29;;;;;;;5.32;1.42;;;17.00;99.90;;;;;;5105365;28;19919;-52
2023/07/16 04:00:55;;;;;;;;;;;17.00;99.90;;;;;;5097037;28;20047;-58
2023/07/16 04:03:20;;;;;;;3.92;1.35;;;17.00;99.90;;;;;;5104805;28;19920;-54
2023/07/16 04:05:46;;;;;;;4.47;1.23;;;17.00;99.90;;;;;;5103894;28;20051;-59
2023/07/16 04:08:11;;;;;;;;;;;17.10;99.90;;;;;;5103410;28;20047;-59
2023/07/16 04:10:37;;;;;;;5.13;1.30;;;17.10;99.90;;;;;;5102480;28;19916;-58
2023/07/16 04:13:03;;;;;;;9.23;1.38;;;17.10;99.90;;;;;;5106386;28;20070;-59
2023/07/16 04:15:28;;;;;;;6.15;1.55;;;17.10;99.90;;;;;;5096362;28;20755;-60
2023/07/16 04:17:54;;;;;;;11.52;1.67;;;17.20;99.90;;;;;;5099013;28;20051;-60
2023/07/16 04:20:20;;;;;;;;;;;17.20;99.90;;;;;;5099509;28;20053;-60
2023/07/16 04:22:45;;;;;;;5.03;1.70;;;17.30;99.90;;;;;;5106042;28;19938;-60
2023/07/16 04:25:11;;;;;;;3.53;1.58;;;17.30;99.90;;;;;;5105950;28;20032;-58
2023/07/16 04:27:37;;;;;;;7.88;1.55;;;17.40;99.90;;;;;;5097590;28;20185;-61
2023/07/16 04:30:03;;;;;;;3.20;1.30;;;17.40;99.90;;;;;;5107472;28;20328;-61
2023/07/16 04:32:28;;;;;;;;;;;17.30;99.90;;;;;;5100762;27;20047;-53
2023/07/16 04:34:54;;;;;;;10.75;1.55;;;17.30;99.90;;;;;;5121025;27;19919;-60
2023/07/16 04:37:20;;;;;;;6.78;1.52;;;17.20;99.90;;;;;;5117803;27;20047;-59
2023/07/16 04:39:46;;;;;;;8.57;1.65;;;17.20;99.90;;;;;;5123171;27;20122;-53
2023/07/16 04:42:11;;;;;;;;;;;17.00;99.90;;;;;;5113513;27;20110;-61
2023/07/16 04:44:37;;;;;;;4.63;1.30;;;17.00;99.90;;;;;;5116608;27;19933;-58
2023/07/16 04:47:03;;;;;;;;;;;16.90;99.90;;;;;;5114240;27;20051;-52
2023/07/16 04:49:28;;;;;;;5.63;1.67;;;16.90;99.90;;;;;;5122235;27;20059;-60
2023/07/16 04:51:54;;;;;;;;;;;16.90;99.90;;;;;;5121760;27;20138;-60
2023/07/16 04:54:19;;;;;;;5.57;1.70;;;16.80;99.90;;;;;;5115358;27;20064;-57
2023/07/16 04:56:45;;;;;;;3.00;1.25;;;16.80;99.90;;;;;;5101965;27;20054;-60
2023/07/16 04:59:11;;;;;;;9.10;1.90;;;16.90;99.90;;;;;;5118186;27;20031;-60
2023/07/16 05:01:36;;;;;;;;;;;16.80;99.90;;;;;;5121460;27;20039;-58
2023/07/16 05:04:02;;;;;;;5.90;2.25;;;16.80;99.90;;;;;;5118078;27;20007;-59
2023/07/16 05:06:27;;;;;;;;;;;16.90;99.90;;;;;;5121924;27;20040;-59
2023/07/16 05:08:53;;;;;;;5.20;1.50;;;16.90;99.90;;;;;;5119608;27;19926;-58
2023/07/16 05:11:19;;;;;;;4.82;1.73;;;17.00;99.90;;;;;;5109458;27;20031;-57
2023/07/16 05:13:45;;;;;;;5.35;1.67;;;17.00;99.90;;;;;;5117692;27;20049;-59
2023/07/16 05:16:10;;;;;;;;;;;17.10;99.90;;;;;;5112639;27;20031;-60
2023/07/16 05:18:36;;;;;;;12.05;2.20;;;17.10;99.90;;;;;;5117263;27;19926;-60
2023/07/16 05:21:02;;;;;;;;;;;17.00;99.90;;;;;;5118863;27;20038;-53
2023/07/16 05:23:27;;;;;;;7.13;1.73;;;17.00;99.90;;;;;;5115481;27;20666;-61
2023/07/16 05:25:53;;;;;;;5.32;1.70;;;17.20;99.90;;;;;;5120462;27;20039;-59
2023/07/16 05:28:19;;;;;;;;;;;17.20;99.90;;;;;;5114889;27;20063;-57
2023/07/16 05:30:45;;;;;;;6.53;1.98;;;17.30;99.90;;;;;;5122319;27;19979;-60
2023/07/16 05:33:11;;;;;;;5.13;1.98;;;17.10;99.90;;;;;;5119246;27;20039;-52
2023/07/16 05:35:37;;;;;;;6.15;1.95;;;17.00;99.90;;;;;;5118106;27;20503;-51
2023/07/16 05:38:03;;;;;;;7.25;2.65;;;17.00;99.90;;;;;;5115365;27;20035;-51
2023/07/16 05:40:29;;;;;;;;;;;17.40;99.90;;;;;;5109448;27;20950;-52
2023/07/16 05:42:54;;;;;;;7.15;2.03;;;17.20;99.90;;;;;;5117443;27;20409;-61
2023/07/16 05:45:20;;;;;;;;;;;17.00;99.90;;;;;;5112976;27;20046;-56
2023/07/16 05:47:46;;;;;;;6.65;1.92;;;17.10;99.90;;;;;;5115244;27;19919;-59
2023/07/16 05:50:11;;;;;;;;;;;17.00;99.90;;;;;;5119329;27;20040;-54
2023/07/16 05:52:37;;;;;;;9.10;2.45;;;16.90;99.90;;;;;;5115404;27;19926;-58
2023/07/16 05:55:02;;;;;;;;;;;17.00;99.90;;;;;;5119477;27;20039;-59
2023/07/16 05:57:28;;;;;;;6.75;2.10;;;17.20;99.90;;;;;;5115954;27;19923;-56
2023/07/16 05:59:53;;;;;;;;;;;17.20;99.90;;;;;;5117206;27;20051;-61
2023/07/16 06:02:19;;;;;;;6.78;2.28;;;17.20;99.90;;;;;;5104008;27;19922;-55
2023/07/16 06:04:45;;;;;;;;;;;17.10;99.90;;;;;;5096673;28;20044;-54
2023/07/16 06:07:10;;;;;;;9.55;2.33;;;17.00;99.90;;;;;;5102664;28;19911;-61
2023/07/16 06:09:36;;;;;;;7.95;2.58;;;17.10;99.90;;;;;;5102185;27;20120;-54
2023/07/16 06:12:01;;;;;;;;;;;17.00;99.90;;;;;;5086978;28;20059;-58
2023/07/16 06:14:27;;;;;;;8.90;2.65;;;17.10;99.90;;;;;;5108832;27;20002;-58
2023/07/16 06:16:53;;;;;;;8.13;2.45;;;17.10;99.90;;;;;;5108064;27;20043;-62
2023/07/16 06:19:18;;;;;;;6.07;2.10;;;17.10;99.90;;;;;;5096559;28;20031;-59
2023/07/16 06:21:44;;;;;;;;;;;17.20;99.90;;;;;;5100952;27;20126;-60
2023/07/16 06:24:10;;;;;;;7.30;2.38;;;17.20;99.90;;;;;;5093116;28;20311;-63
2023/07/16 06:26:36;;;;;;;;;;;17.10;99.90;;;;;;5098242;28;20044;-56
2023/07/16 06:29:02;;;;;;;6.28;1.95;;;17.00;99.90;;;;;;5089422;28;19916;-57
2023/07/16 06:31:27;;;;;;;;;;;17.00;99.90;;;;;;5103417;27;20050;-59
2023/07/16 06:33:53;;;;;;;10.40;2.58;;;17.10;99.90;;;;;;5108319;27;20419;-62
2023/07/16 06:36:20;;;;;;;;;;;17.10;99.90;;;;;;5103409;27;20056;-59
2023/07/16 06:38:46;;;;;;;;;;;17.10;99.90;;;;;;5072943;28;20470;-60
2023/07/16 06:41:11;;;;;;;8.07;2.45;;;17.20;99.90;;;;;;5099048;28;19919;-60
2023/07/16 06:43:37;;;;;;;;;;;17.60;99.90;;;;;;5098335;28;20039;-59
2023/07/16 06:46:03;;;;;;;7.68;2.40;;;18.00;99.90;;;;;;5103327;28;19930;-57
2023/07/16 06:48:29;;;;;;;7.57;2.65;;;18.30;99.90;;;;;;5098141;28;20180;-60
2023/07/16 06:50:54;;;;;;;;;;;18.60;99.60;;;;;;5102699;28;20114;-59
2023/07/16 06:53:20;;;;;;;7.38;2.50;;;18.80;99.20;;;;;;5096031;28;20017;-61
2023/07/16 06:55:47;;;;;;;7.43;2.45;;;18.70;99.90;;;;;;5098667;28;20318;-59
2023/07/16 06:58:13;;;;;;;5.03;2.03;;;18.60;99.30;;;;;;5097359;28;20132;-56
2023/07/16 07:00:39;;;;;;;6.45;2.25;;;18.10;99.90;;;;;;5098294;28;20582;-57
2023/07/16 07:03:05;;;;;;;;;;;18.10;99.90;;;;;;5113078;27;20055;-57
2023/07/16 07:05:30;;;;;;;8.50;2.42;;;18.10;99.90;;;;;;5118791;27;20010;-55
2023/07/16 07:07:56;;;;;;;6.30;2.25;;;18.20;99.90;;;;;;5108091;28;20503;-57
2023/07/16 07:10:22;;;;;;;5.68;2.38;;;18.50;99.90;;;;;;5114981;28;20148;-57
2023/07/16 07:12:47;;;;;;;10.82;2.42;;;18.70;99.30;;;;;;5116187;28;20031;-60
2023/07/16 07:15:13;;;;;;;6.55;2.33;;;18.90;99.20;;;;;;5117846;28;20039;-55
2023/07/16 07:17:39;;;;;;;;;;;18.80;98.90;;;;;;5108406;28;20902;-59
2023/07/16 07:20:06;;;;;;;7.82;2.80;;;18.60;98.50;;;;;;5117481;28;19926;-53
2023/07/16 07:22:32;;;;;;;10.00;2.47;;;18.50;98.90;;;;;;5113185;28;20035;-53
2023/07/16 07:24:58;;;;;;;;;;;18.40;99.90;;;;;;5104378;28;20047;-60
2023/07/16 07:27:23;;;;;;;5.68;2.17;;;18.70;99.00;;;;;;5110331;27;19946;-53
2023/07/16 07:29:51;;;;;;;;;;;19.20;98.00;;;;;;5099821;27;20392;-48
2023/07/16 07:32:20;;;;;;;6.68;2.28;;;19.90;95.60;;;;;;5121788;27;19923;-57
2023/07/16 07:34:45;;;;;;;5.78;2.33;;;20.50;94.80;;;;;;5120401;27;20039;-59
2023/07/16 07:37:11;;;;;;;7.90;2.53;;;20.50;94.60;;;;;;5118178;27;20509;-57
2023/07/16 07:39:37;;;;;;;4.95;2.10;;;21.40;92.30;;;;;;5121541;27;20044;-52
2023/07/16 07:42:03;;;;;;;8.52;2.30;;;22.20;90.30;;;;;;5115933;27;20084;-54
2023/07/16 07:44:28;;;;;;;4.65;2.40;;;22.50;85.70;;;;;;5116233;27;20122;-54
2023/07/16 07:46:54;;;;;;;4.25;2.22;;;22.90;85.70;;;;;;5111786;27;20375;-56
2023/07/16 07:49:20;;;;;;;4.10;2.00;;;23.00;82.70;;;;;;5115563;27;20048;-58
2023/07/16 07:51:47;;;;;;;9.68;2.45;;;22.70;84.10;;;;;;5123800;27;20023;-57
2023/07/16 07:54:12;;;;;;;3.20;2.17;;;23.30;83.10;;;;;;5122496;27;20039;-56
2023/07/16 07:56:38;;;;;;;7.13;2.80;;;22.90;83.60;;;;;;5119114;27;20040;-58
2023/07/16 07:59:04;;;;;;;5.40;2.28;;;23.30;82.80;;;;;;5119567;27;20039;-58
2023/07/16 08:01:30;;;;;;;4.97;2.65;;;23.90;80.90;;;;;;5120986;27;20402;-58
2023/07/16 08:03:55;;;;;;;3.88;2.20;;;23.90;83.60;;;;;;5117820;27;20031;-52
2023/07/16 08:06:21;;;;;;;6.68;2.65;;;22.90;82.50;;;;;;5120844;27;20051;-59
2023/07/16 08:08:47;;;;;;;4.75;1.95;;;22.00;86.20;;;;;;5119302;27;20035;-60
2023/07/16 08:11:12;;;;;;;4.82;2.13;;;22.80;84.40;;;;;;5120250;27;20483;-58
2023/07/16 08:13:38;;;;;;;5.13;2.10;;;22.20;84.40;;;;;;5118573;27;20035;-55
2023/07/16 08:16:04;;;;;;;4.53;2.47;;;22.50;83.80;;;;;;5120515;27;20388;-55
2023/07/16 08:18:30;;;;;;;8.90;2.65;;;22.50;83.80;;;;;;5115747;27;20106;-57
2023/07/16 08:20:55;;;;;;;6.40;2.75;;;22.50;83.80;;;;;;5121929;27;20483;-54
2023/07/16 08:23:21;;;;;;;5.35;2.17;;;22.60;83.10;;;;;;5118828;27;20123;-54
2023/07/16 08:25:47;;;;;;;4.50;2.17;;;22.50;85.40;;;;;;5122754;27;20057;-53
2023/07/16 08:28:12;;;;;;;7.75;2.92;;;22.70;87.60;;;;;;5113231;27;20039;-59
2023/07/16 08:30:38;;;;;;;3.15;2.20;;;22.50;82.90;;;;;;5111010;27;20043;-58
2023/07/16 08:33:04;;;;;;;5.25;2.50;;;22.50;82.90;;;;;;5114626;27;20048;-59
2023/07/16 08:35:29;;;;;;;6.97;2.30;;;22.10;83.20;;;;;;5107509;27;20438;-54
2023/07/16 08:37:55;;;;;;;5.82;2.50;;;21.50;87.10;;;;;;5118207;27;20035;-57
2023/07/16 08:40:21;;;;;;;12.45;2.60;;;21.90;86.30;;;;;;5122936;27;20031;-56
2023/07/16 08:42:48;;;;;;;4.50;2.60;;;22.10;86.20;;;;;;5111955;27;20486;-58
2023/07/16 08:45:16;;;;;;;10.27;2.58;;;22.30;85.60;;;;;;5116156;27;20111;-58
2023/07/16 08:47:41;;;;;;;6.55;3.10;;;22.50;84.30;;;;;;5112600;27;20134;-52
2023/07/16 08:50:07;;;;;;;6.82;2.40;;;22.80;82.10;;;;;;5116610;27;20678;-52
2023/07/16 08:52:33;;;;;;;8.48;2.10;;;23.20;81.60;;;;;;5117303;27;20060;-56
2023/07/16 08:54:59;;;;;;;4.07;2.15;;;22.80;81.70;;;;;;5114490;27;20119;-57
2023/07/16 08:57:26;;;;;;;6.85;2.58;;;22.80;82.00;;;;;;5108464;27;20488;-62
2023/07/16 08:59:52;;;;;;;5.85;2.60;;;23.00;80.20;;;;;;5111554;27;20096;-57
2023/07/16 09:02:18;;;;;;;4.65;2.10;;;23.00;78.50;;;;;;5119750;27;20031;-58
2023/07/16 09:04:48;;;;;;;6.45;2.90;;;22.60;80.10;;;;;;5125804;27;20046;-58
2023/07/16 09:07:14;;;;;;;4.85;2.40;;;22.10;82.60;;;;;;5124801;27;20039;-54
2023/07/16 09:09:40;;;;;;;8.45;2.78;;;21.60;85.00;;;;;;5125947;27;20096;-55
2023/07/16 09:12:06;;;;;;;7.20;2.53;;;21.20;87.30;;;;;;5125223;27;20091;-57
2023/07/16 09:14:31;;;;;;;8.20;3.00;;;21.10;89.90;;;;;;5123512;27;20035;-56
2023/07/16 09:16:57;;;;;;;4.90;2.90;;;20.80;86.20;;;;;;5125131;27;20066;-54
2023/07/16 09:19:25;;;;;;;6.38;3.08;;;20.90;88.80;;;;;;5123874;27;20556;-56
2023/07/16 09:21:52;;;;;;;6.50;2.88;;;20.90;87.80;;;;;;5117573;27;20466;-59
2023/07/16 09:24:19;;;;;;;10.02;3.10;;;20.60;87.60;;;;;;5124741;27;20031;-53
2023/07/16 09:26:53;;;;;;;6.70;2.97;;;20.60;87.80;;;;;;5124983;27;20075;-56
2023/07/16 09:29:19;;;;;;;5.32;2.55;;;20.50;87.30;;;;;;5126433;27;20034;-51
2023/07/16 09:32:04;;;;;;;6.25;2.72;;;20.30;87.20;;;;;;5124580;27;20096;-57
2023/07/16 09:34:31;;;;;;;7.50;3.25;;;20.60;87.10;;;;;;5124775;27;20077;-56
2023/07/16 09:36:58;;;;;;;8.25;2.80;;;20.60;86.10;;;;;;5125605;27;20038;-57
2023/07/16 09:39:26;;;;;;;5.95;2.67;;;20.60;87.90;;;;;;5124112;27;20074;-56
2023/07/16 09:41:52;;;;;;;10.30;3.30;;;20.60;87.90;;;;;;5113481;27;20039;-57
2023/07/16 09:44:18;;;;;;;5.32;2.90;;;20.70;86.50;;;;;;5123431;27;20124;-58
2023/07/16 09:46:45;;;;;;;6.75;3.00;;;20.60;86.70;;;;;;5124501;27;20099;-55
2023/07/16 09:49:11;;;;;;;11.73;3.00;;;20.60;88.30;;;;;;5125521;27;20039;-59
2023/07/16 09:51:38;;;;;;;7.32;3.03;;;20.50;86.60;;;;;;5104409;27;20035;-57
2023/07/16 09:54:05;;;;;;;5.05;3.22;;;20.50;86.60;;;;;;5122993;27;20058;-58
2023/07/16 09:56:37;;;;;;;8.00;2.92;;;20.70;86.30;;;;;;5121406;27;20050;-60
2023/07/16 09:59:08;;;;;;;7.55;2.80;;;20.80;85.90;;;;;;5117412;27;20077;-54
2023/07/16 10:01:38;;;;;;;7.18;3.15;;;20.80;85.70;;;;;;5122218;27;20062;-55
2023/07/16 10:04:18;;;;;;;6.13;2.72;;;20.70;85.20;;;;;;5121107;27;20101;-59
2023/07/16 10:06:52;;;;;;;8.13;2.85;;;20.70;86.80;;;;;;5122382;27;20525;-51
2023/07/16 10:09:41;;;;;;;4.30;2.67;;;20.90;85.40;;;;;;5121370;27;20035;-49
2023/07/16 10:12:10;;;;;;;6.88;3.30;;;21.00;86.00;;;;;;5125277;27;20061;-57
2023/07/16 10:14:47;;;;;;;4.50;2.70;;;21.00;84.50;;;;;;5121720;27;20053;-59
2023/07/16 10:17:17;;;;;;;7.57;2.90;;;21.00;83.50;;;;;;5124519;27;20069;-54
2023/07/16 10:20:12;;;;;;;5.03;2.50;;;21.10;82.70;;;;;;5121556;27;20639;-55
2023/07/16 10:22:39;;;;;;;7.05;2.97;;;21.20;82.30;;;;;;5122260;27;20122;-56
2023/07/16 10:25:23;;;;;;;6.55;2.80;;;21.20;83.50;;;;;;5122782;27;20491;-60
2023/07/16 10:27:51;;;;;;;6.03;3.15;;;21.00;83.00;;;;;;5124208;27;20158;-60
2023/07/16 10:30:17;;;;;;;7.45;3.33;;;21.00;83.60;;;;;;5096098;27;20065;-57
2023/07/16 10:32:43;;;;;;;5.75;2.63;;;21.20;85.10;;;;;;5120719;27;20034;-55
2023/07/16 10:35:10;;;;;;;7.28;3.42;;;21.40;82.20;;;;;;5121631;27;20082;-54
2023/07/16 10:37:36;;;;;;;7.72;3.10;;;21.30;81.20;;;;;;5122270;27;20080;-57
2023/07/16 10:40:03;;;;;;;5.28;2.80;;;21.30;82.30;;;;;;5120280;27;20043;-56
2023/07/16 10:42:29;;;;;;;8.57;2.90;;;21.10;81.80;;;;;;5119817;27;20050;-58
2023/07/16 10:44:58;;;;;;;8.10;3.10;;;21.20;84.50;;;;;;5124696;27;20482;-57
2023/07/16 10:47:32;;;;;;;5.25;3.17;;;21.40;83.70;;;;;;5122468;27;20047;-54
2023/07/16 10:49:58;;;;;;;8.45;3.10;;;21.40;82.80;;;;;;5125353;27;20071;-57
2023/07/16 10:52:26;;;;;;;7.05;3.15;;;21.50;81.50;;;;;;5118607;27;20035;-57
2023/07/16 10:54:57;;;;;;;8.68;3.78;;;21.50;83.90;;;;;;5122338;27;20054;-58
2023/07/16 10:57:23;;;;;;;13.05;2.95;;;21.40;81.60;;;;;;5119819;27;20178;-54
2023/07/16 10:59:51;;;;;;;6.95;3.17;;;21.50;81.30;;;;;;5123212;27;20039;-53
2023/07/16 11:02:17;;;;;;;8.52;3.38;;;21.40;82.50;;;;;;5121826;27;20039;-58
2023/07/16 11:04:45;;;;;;;9.25;3.47;;;21.50;83.80;;;;;;5121844;27;20047;-57
2023/07/16 11:07:13;;;;;;;5.63;3.42;;;21.80;82.50;;;;;;5117751;27;20042;-57
2023/07/16 11:09:48;;;;;;;6.47;2.95;;;21.80;81.40;;;;;;5123772;28;20579;-55
2023/07/16 11:12:16;;;;;;;6.60;3.25;;;21.60;81.80;;;;;;5117847;28;20529;-54
2023/07/16 11:14:46;;;;;;;5.22;3.40;;;21.40;81.30;;;;;;5123855;28;20043;-55
2023/07/16 11:17:13;;;;;;;4.32;3.00;;;21.40;82.40;;;;;;5123180;27;20050;-59
2023/07/16 11:19:40;;;;;;;9.30;3.35;;;21.60;82.30;;;;;;5124826;28;20039;-59
2023/07/16 11:22:08;;;;;;;7.32;3.17;;;21.40;80.00;;;;;;5122642;27;20124;-58
2023/07/16 11:24:50;;;;;;;9.90;3.58;;;21.30;81.70;;;;;;5123791;28;20043;-58
2023/07/16 11:27:21;;;;;;;11.05;3.92;;;21.30;84.50;;;;;;5109225;28;20040;-56
2023/07/16 11:29:47;;;;;;;5.97;3.03;;;21.40;82.20;;;;;;5124673;28;20035;-50
2023/07/16 11:32:25;;;;;;;9.25;3.20;;;21.30;81.10;;;;;;5122414;27;20058;-55
2023/07/16 11:34:55;;;;;;;4.60;3.03;;;21.30;81.10;;;;;;5115662;28;20039;-57
2023/07/16 11:37:22;;;;;;;6.75;3.30;;;21.20;82.20;;;;;;5121980;27;20089;-52
2023/07/16 11:39:48;;;;;;;6.68;3.35;;;20.90;81.80;;;;;;5121188;27;20035;-57
2023/07/16 11:42:17;;;;;;;7.15;3.03;;;20.80;81.20;;;;;;5100890;28;20066;-55
2023/07/16 11:44:48;;;;;;;6.07;3.45;;;20.60;83.20;;;;;;5116094;28;20084;-54
2023/07/16 11:47:14;;;;;;;6.38;3.40;;;20.80;83.00;;;;;;5116398;27;20051;-49
2023/07/16 11:49:39;;;;;;;7.35;3.25;;;21.00;82.20;;;;;;5102370;28;20142;-59
2023/07/16 11:52:05;;;;;;;5.75;2.70;;;21.30;77.80;;;;;;5122807;28;20122;-55
2023/07/16 11:54:31;;;;;;;6.55;3.38;;;21.50;79.80;;;;;;5122690;27;20182;-53
2023/07/16 11:56:57;;;;;;;8.25;3.78;;;21.70;79.20;;;;;;5123332;28;20118;-58
2023/07/16 11:59:22;;;;;;;6.25;2.97;;;21.90;80.10;;;;;;5123844;28;20054;-56
2023/07/16 12:01:49;;;;;;;9.82;3.88;;;21.60;78.70;;;;;;5120664;27;20035;-56
2023/07/16 12:04:16;;;;;;;6.80;3.42;;;21.60;80.80;;;;;;5123033;27;20035;-59
2023/07/16 12:06:42;;;;;;;6.80;3.67;;;21.30;79.80;;;;;;5103149;28;20062;-57
2023/07/16 12:09:07;;;;;;;4.90;3.40;;;21.30;81.50;;;;;;5123533;27;20433;-57
2023/07/16 12:11:33;;;;;;;6.15;2.85;;;21.60;80.70;;;;;;5119525;28;20031;-57
2023/07/16 12:13:59;;;;;;;8.65;3.10;;;21.90;78.50;;;;;;5123986;27;20064;-56
2023/07/16 12:16:24;;;;;;;5.03;2.72;;;22.00;77.40;;;;;;5122916;27;20114;-55
2023/07/16 12:18:50;;;;;;;6.53;3.33;;;22.30;77.20;;;;;;5126879;27;20058;-56
2023/07/16 12:21:15;;;;;;;6.63;3.55;;;21.80;75.20;;;;;;5126158;27;20110;-59
2023/07/16 12:23:42;;;;;;;5.65;2.83;;;21.80;77.00;;;;;;5125838;27;20118;-50
2023/07/16 12:26:08;;;;;;;6.50;3.30;;;21.70;76.20;;;;;;5127060;27;20039;-51
2023/07/16 12:28:34;;;;;;;5.40;3.15;;;21.90;79.40;;;;;;5126349;27;20060;-55
2023/07/16 12:30:59;;;;;;;5.63;3.47;;;22.00;78.00;;;;;;5121644;27;20039;-56
2023/07/16 12:33:25;;;;;;;6.57;3.13;;;22.10;75.40;;;;;;5114450;27;20069;-58
2023/07/16 12:35:51;;;;;;;5.65;3.17;;;21.90;75.80;;;;;;5127141;27;20059;-59
2023/07/16 12:38:17;;;;;;;4.20;3.33;;;21.60;77.30;;;;;;5124367;27;20444;-56
2023/07/16 12:40:42;;;;;;;6.35;2.88;;;21.50;78.00;;;;;;5125061;27;20071;-51
2023/07/16 12:43:08;;;;;;;4.95;2.65;;;21.80;77.60;;;;;;5123281;27;20071;-56
2023/07/16 12:45:34;;;;;;;6.63;3.15;;;21.90;79.70;;;;;;5102550;27;20040;-54
2023/07/16 12:47:59;;;;;;;8.30;3.78;;;21.90;77.90;;;;;;5126950;27;20120;-56
2023/07/16 12:50:27;;;;;;;8.25;2.90;;;21.80;78.30;;;;;;5127954;27;20047;-54
2023/07/16 12:52:53;;;;;;;4.75;3.20;;;21.70;78.10;;;;;;5125591;27;20423;-60
2023/07/16 12:55:19;;;;;;;8.82;3.40;;;21.60;77.20;;;;;;5126468;27;20051;-55
2023/07/16 12:57:44;;;;;;;5.22;3.10;;;21.80;76.50;;;;;;5120287;27;20516;-57